IBE22IA LEMD-LESO
Flight info
| Callsign | IBE22IA |
|---|---|
| Flight time | 0h 36m |
| Altitude | 28000 |
| Route | RBO N867 GASMO T430 LPA/N0355F140 T430 DITOP N10 SSN |
| Aircraft | A320/M-SDE3FGHIRWY/LB1 |
Departure
| Time | 2026-04-12 10:03 |
|---|---|
| Airport | Adolfo Suárez Madrid–Barajas Airport (LEMD) |
Arrival
| Time | 2026-04-12 10:39 |
|---|---|
| Airport | San Sebastián Airport (LESO) |
| Time | Latitude | Longitude | Altitude | Speed | Heading |
|---|---|---|---|---|---|
| 2026-04-12 09:35 | 40.48836 | -3.59200 | 1982 ft | 0 kts | 90° |
| 2026-04-12 09:49 | 40.48836 | -3.59217 | 1983 ft | 2 kts | 90° |
| 2026-04-12 09:49 | 40.48836 | -3.59240 | 1980 ft | 2 kts | 90° |
| 2026-04-12 09:50 | 40.48840 | -3.59261 | 1982 ft | 2 kts | 152° |
| 2026-04-12 09:50 | 40.48847 | -3.59266 | 1981 ft | 0 kts | 181° |
| 2026-04-12 09:52 | 40.48839 | -3.59266 | 1982 ft | 6 kts | 182° |
| 2026-04-12 09:53 | 40.48761 | -3.59268 | 1983 ft | 0 kts | 179° |
| 2026-04-12 09:53 | 40.48746 | -3.59268 | 1982 ft | 10 kts | 179° |
| 2026-04-12 09:53 | 40.48656 | -3.59267 | 1980 ft | 14 kts | 179° |
| 2026-04-12 09:54 | 40.48572 | -3.59262 | 1982 ft | 2 kts | 177° |
| 2026-04-12 09:54 | 40.48520 | -3.59259 | 1980 ft | 8 kts | 175° |
| 2026-04-12 09:54 | 40.48508 | -3.59209 | 1980 ft | 12 kts | 92° |
| 2026-04-12 09:54 | 40.48514 | -3.59044 | 1980 ft | 20 kts | 86° |
| 2026-04-12 09:55 | 40.48514 | -3.58872 | 1980 ft | 18 kts | 75° |
| 2026-04-12 09:55 | 40.48613 | -3.58823 | 1982 ft | 17 kts | 352° |
| 2026-04-12 09:55 | 40.48731 | -3.58812 | 1982 ft | 16 kts | 20° |
| 2026-04-12 09:55 | 40.48760 | -3.58698 | 1980 ft | 15 kts | 90° |
| 2026-04-12 09:56 | 40.48760 | -3.58549 | 1980 ft | 18 kts | 89° |
| 2026-04-12 09:56 | 40.48766 | -3.58378 | 1980 ft | 20 kts | 86° |
| 2026-04-12 09:56 | 40.48763 | -3.58183 | 1980 ft | 22 kts | 91° |
| 2026-04-12 09:56 | 40.48763 | -3.57970 | 1980 ft | 24 kts | 90° |
| 2026-04-12 09:57 | 40.48763 | -3.57744 | 1980 ft | 25 kts | 88° |
| 2026-04-12 09:57 | 40.48766 | -3.57512 | 1984 ft | 26 kts | 92° |
| 2026-04-12 09:57 | 40.48768 | -3.57276 | 1980 ft | 26 kts | 89° |
| 2026-04-12 09:57 | 40.48765 | -3.57037 | 1981 ft | 27 kts | 90° |
| 2026-04-12 09:58 | 40.48767 | -3.56820 | 1980 ft | 22 kts | 90° |
| 2026-04-12 09:58 | 40.48767 | -3.56616 | 1983 ft | 23 kts | 90° |
| 2026-04-12 09:58 | 40.48768 | -3.56404 | 1982 ft | 24 kts | 90° |
| 2026-04-12 09:58 | 40.48774 | -3.56281 | 1980 ft | 9 kts | 72° |
| 2026-04-12 09:59 | 40.48854 | -3.56249 | 1983 ft | 21 kts | 358° |
| 2026-04-12 09:59 | 40.49011 | -3.56251 | 1980 ft | 23 kts | 360° |
| 2026-04-12 09:59 | 40.49174 | -3.56250 | 1980 ft | 24 kts | 360° |
| 2026-04-12 09:59 | 40.49341 | -3.56251 | 1984 ft | 24 kts | 359° |
| 2026-04-12 10:00 | 40.49512 | -3.56252 | 1981 ft | 25 kts | 360° |
| 2026-04-12 10:00 | 40.49686 | -3.56253 | 1980 ft | 25 kts | 359° |
| 2026-04-12 10:00 | 40.49863 | -3.56253 | 1980 ft | 26 kts | 0° |
| 2026-04-12 10:00 | 40.50004 | -3.56253 | 1980 ft | 15 kts | 14° |
| 2026-04-12 10:01 | 40.50028 | -3.56133 | 1980 ft | 16 kts | 93° |
| 2026-04-12 10:01 | 40.50036 | -3.56042 | 1983 ft | 0 kts | 70° |
| 2026-04-12 10:01 | 40.50037 | -3.56039 | 1983 ft | 3 kts | 70° |
| 2026-04-12 10:02 | 40.50086 | -3.55955 | 1982 ft | 16 kts | 33° |
| 2026-04-12 10:02 | 40.50224 | -3.55920 | 1982 ft | 37 kts | 1° |
| 2026-04-12 10:02 | 40.50732 | -3.55924 | 1981 ft | 105 kts | 359° |
| 2026-04-12 10:02 | 40.51645 | -3.55928 | 1993 ft | 154 kts | 359° |
| 2026-04-12 10:03 | 40.52664 | -3.55929 | 2707 ft | 146 kts | 1° |
| 2026-04-12 10:03 | 40.53686 | -3.55924 | 3320 ft | 150 kts | 4° |
| 2026-04-12 10:03 | 40.54776 | -3.55655 | 3615 ft | 172 kts | 17° |
| 2026-04-12 10:03 | 40.55997 | -3.55163 | 3926 ft | 194 kts | 16° |
| 2026-04-12 10:04 | 40.57370 | -3.54617 | 4299 ft | 214 kts | 15° |
| 2026-04-12 10:04 | 40.58798 | -3.54032 | 5139 ft | 216 kts | 19° |
| 2026-04-12 10:04 | 40.60118 | -3.53021 | 5789 ft | 230 kts | 37° |
| 2026-04-12 10:04 | 40.61414 | -3.51588 | 6176 ft | 255 kts | 39° |
| 2026-04-12 10:05 | 40.62806 | -3.50025 | 6783 ft | 268 kts | 39° |
| 2026-04-12 10:05 | 40.64243 | -3.48406 | 7565 ft | 275 kts | 39° |
| 2026-04-12 10:05 | 40.65694 | -3.46774 | 8367 ft | 281 kts | 39° |
| 2026-04-12 10:05 | 40.67201 | -3.45085 | 9175 ft | 287 kts | 39° |
| 2026-04-12 10:06 | 40.68742 | -3.43361 | 9974 ft | 293 kts | 40° |
| 2026-04-12 10:06 | 40.70340 | -3.41574 | 10414 ft | 313 kts | 39° |
| 2026-04-12 10:06 | 40.72061 | -3.39650 | 10668 ft | 336 kts | 38° |
| 2026-04-12 10:06 | 40.73898 | -3.37596 | 11038 ft | 353 kts | 38° |
| 2026-04-12 10:07 | 40.75790 | -3.35470 | 11670 ft | 361 kts | 38° |
| 2026-04-12 10:07 | 40.77711 | -3.33311 | 12395 ft | 364 kts | 39° |
| 2026-04-12 10:07 | 40.79652 | -3.31129 | 13128 ft | 369 kts | 38° |
| 2026-04-12 10:07 | 40.81617 | -3.28919 | 13837 ft | 373 kts | 39° |
| 2026-04-12 10:08 | 40.83644 | -3.26750 | 14467 ft | 376 kts | 32° |
| 2026-04-12 10:08 | 40.85924 | -3.25060 | 15095 ft | 377 kts | 21° |
| 2026-04-12 10:08 | 40.88422 | -3.23993 | 15719 ft | 379 kts | 9° |
| 2026-04-12 10:08 | 40.91027 | -3.23406 | 16326 ft | 382 kts | 6° |
| 2026-04-12 10:09 | 40.93665 | -3.22832 | 16942 ft | 386 kts | 7° |
| 2026-04-12 10:09 | 40.96327 | -3.22246 | 17554 ft | 390 kts | 7° |
| 2026-04-12 10:09 | 40.98981 | -3.21651 | 18143 ft | 393 kts | 7° |
| 2026-04-12 10:09 | 41.01691 | -3.21037 | 18657 ft | 398 kts | 7° |
| 2026-04-12 10:10 | 41.04434 | -3.20417 | 19145 ft | 402 kts | 7° |
| 2026-04-12 10:10 | 41.07207 | -3.19791 | 19613 ft | 406 kts | 7° |
| 2026-04-12 10:10 | 41.10010 | -3.19160 | 20074 ft | 411 kts | 7° |
| 2026-04-12 10:10 | 41.12848 | -3.18522 | 20521 ft | 417 kts | 7° |
| 2026-04-12 10:11 | 41.15721 | -3.17873 | 20983 ft | 421 kts | 7° |
| 2026-04-12 10:11 | 41.18629 | -3.17215 | 21439 ft | 426 kts | 7° |
| 2026-04-12 10:11 | 41.21562 | -3.16553 | 21879 ft | 430 kts | 7° |
| 2026-04-12 10:11 | 41.24529 | -3.15885 | 22306 ft | 435 kts | 7° |
| 2026-04-12 10:12 | 41.27526 | -3.15207 | 22731 ft | 439 kts | 8° |
| 2026-04-12 10:12 | 41.30555 | -3.14522 | 23175 ft | 443 kts | 8° |
| 2026-04-12 10:12 | 41.33614 | -3.13830 | 23561 ft | 448 kts | 8° |
| 2026-04-12 10:12 | 41.36706 | -3.13130 | 23912 ft | 452 kts | 8° |
| 2026-04-12 10:13 | 41.39818 | -3.12426 | 24278 ft | 455 kts | 8° |
| 2026-04-12 10:13 | 41.42955 | -3.11715 | 24640 ft | 458 kts | 8° |
| 2026-04-12 10:13 | 41.46078 | -3.11004 | 24991 ft | 461 kts | 8° |
| 2026-04-12 10:13 | 41.49248 | -3.10279 | 25341 ft | 464 kts | 8° |
| 2026-04-12 10:14 | 41.52438 | -3.09547 | 25713 ft | 467 kts | 8° |
| 2026-04-12 10:14 | 41.55649 | -3.08816 | 26015 ft | 471 kts | 8° |
| 2026-04-12 10:14 | 41.58892 | -3.08083 | 26344 ft | 474 kts | 8° |
| 2026-04-12 10:14 | 41.62150 | -3.07345 | 26687 ft | 476 kts | 8° |
| 2026-04-12 10:15 | 41.65429 | -3.06600 | 27014 ft | 479 kts | 8° |
| 2026-04-12 10:15 | 41.68724 | -3.05809 | 27349 ft | 483 kts | 12° |
| 2026-04-12 10:15 | 41.71949 | -3.04514 | 27651 ft | 486 kts | 21° |
| 2026-04-12 10:15 | 41.75019 | -3.02596 | 27962 ft | 489 kts | 30° |
| 2026-04-12 10:16 | 41.77865 | -3.00118 | 28037 ft | 487 kts | 38° |
| 2026-04-12 10:16 | 41.83327 | -2.94778 | 28045 ft | 485 kts | 38° |
| 2026-04-12 10:17 | 41.88784 | -2.89435 | 28055 ft | 485 kts | 38° |
| 2026-04-12 10:17 | 41.94235 | -2.84086 | 28068 ft | 485 kts | 38° |
| 2026-04-12 10:18 | 41.99667 | -2.78750 | 28078 ft | 487 kts | 38° |
| 2026-04-12 10:18 | 42.05140 | -2.73361 | 28079 ft | 488 kts | 38° |
| 2026-04-12 10:19 | 42.10616 | -2.67964 | 28089 ft | 487 kts | 38° |
| 2026-04-12 10:19 | 42.16075 | -2.62561 | 28079 ft | 487 kts | 38° |
| 2026-04-12 10:20 | 42.21530 | -2.57143 | 28095 ft | 487 kts | 38° |
| 2026-04-12 10:20 | 42.26988 | -2.51725 | 28075 ft | 488 kts | 38° |
| 2026-04-12 10:21 | 42.32459 | -2.46279 | 28059 ft | 489 kts | 38° |
| 2026-04-12 10:21 | 42.37934 | -2.40817 | 28056 ft | 490 kts | 38° |
| 2026-04-12 10:22 | 42.43435 | -2.35308 | 28069 ft | 491 kts | 38° |
| 2026-04-12 10:22 | 42.48919 | -2.29813 | 28061 ft | 492 kts | 38° |
| 2026-04-12 10:23 | 42.54430 | -2.24296 | 28061 ft | 493 kts | 38° |
| 2026-04-12 10:23 | 42.59938 | -2.18752 | 28084 ft | 493 kts | 39° |
| 2026-04-12 10:24 | 42.65443 | -2.13187 | 28075 ft | 493 kts | 39° |
| 2026-04-12 10:24 | 42.70949 | -2.07616 | 28078 ft | 493 kts | 39° |
| 2026-04-12 10:25 | 42.76461 | -2.02036 | 28010 ft | 494 kts | 39° |
| 2026-04-12 10:25 | 42.79218 | -1.99244 | 26888 ft | 499 kts | 39° |
| 2026-04-12 10:25 | 42.82012 | -1.96406 | 25885 ft | 501 kts | 39° |
| 2026-04-12 10:25 | 42.84764 | -1.93608 | 25132 ft | 497 kts | 39° |
| 2026-04-12 10:26 | 42.87515 | -1.90803 | 24435 ft | 492 kts | 39° |
| 2026-04-12 10:26 | 42.90242 | -1.88020 | 23809 ft | 486 kts | 39° |
| 2026-04-12 10:26 | 42.92921 | -1.85284 | 23404 ft | 474 kts | 38° |
| 2026-04-12 10:26 | 42.95511 | -1.82637 | 23267 ft | 457 kts | 38° |
| 2026-04-12 10:27 | 42.98012 | -1.80081 | 23131 ft | 441 kts | 38° |
| 2026-04-12 10:27 | 43.00586 | -1.77932 | 22996 ft | 427 kts | 21° |
| 2026-04-12 10:27 | 43.03416 | -1.77062 | 22813 ft | 412 kts | 1° |
| 2026-04-12 10:27 | 43.06257 | -1.77289 | 21525 ft | 411 kts | 349° |
| 2026-04-12 10:28 | 43.09123 | -1.77879 | 20025 ft | 420 kts | 347° |
| 2026-04-12 10:28 | 43.12023 | -1.78576 | 18450 ft | 427 kts | 346° |
| 2026-04-12 10:28 | 43.14963 | -1.79321 | 16739 ft | 432 kts | 346° |
| 2026-04-12 10:28 | 43.17912 | -1.80059 | 15397 ft | 426 kts | 347° |
| 2026-04-12 10:29 | 43.20807 | -1.80753 | 14168 ft | 419 kts | 347° |
| 2026-04-12 10:29 | 43.23667 | -1.81408 | 12891 ft | 412 kts | 349° |
| 2026-04-12 10:29 | 43.26467 | -1.82030 | 11686 ft | 402 kts | 349° |
| 2026-04-12 10:29 | 43.29183 | -1.82627 | 10756 ft | 387 kts | 349° |
| 2026-04-12 10:30 | 43.31750 | -1.83191 | 10398 ft | 359 kts | 349° |
| 2026-04-12 10:30 | 43.34136 | -1.83447 | 10217 ft | 331 kts | 4° |
| 2026-04-12 10:30 | 43.36257 | -1.82718 | 10117 ft | 306 kts | 17° |
| 2026-04-12 10:30 | 43.38177 | -1.81784 | 10139 ft | 280 kts | 18° |
| 2026-04-12 10:31 | 43.39945 | -1.80897 | 9986 ft | 263 kts | 18° |
| 2026-04-12 10:31 | 43.41642 | -1.80041 | 9561 ft | 256 kts | 18° |
| 2026-04-12 10:31 | 43.43305 | -1.79212 | 9082 ft | 253 kts | 18° |
| 2026-04-12 10:31 | 43.44949 | -1.78405 | 8621 ft | 249 kts | 18° |
| 2026-04-12 10:32 | 43.46571 | -1.77615 | 8170 ft | 246 kts | 18° |
| 2026-04-12 10:32 | 43.48174 | -1.76843 | 7715 ft | 242 kts | 18° |
| 2026-04-12 10:32 | 43.49713 | -1.76108 | 7565 ft | 226 kts | 18° |
| 2026-04-12 10:32 | 43.51143 | -1.75424 | 7435 ft | 210 kts | 18° |
| 2026-04-12 10:33 | 43.52480 | -1.74783 | 7208 ft | 197 kts | 18° |
| 2026-04-12 10:33 | 43.53761 | -1.74172 | 6632 ft | 193 kts | 18° |
| 2026-04-12 10:33 | 43.54977 | -1.73433 | 6004 ft | 191 kts | 37° |
| 2026-04-12 10:33 | 43.55858 | -1.72117 | 5445 ft | 189 kts | 57° |
| 2026-04-12 10:34 | 43.56146 | -1.70366 | 4915 ft | 189 kts | 88° |
| 2026-04-12 10:34 | 43.55734 | -1.68650 | 4271 ft | 195 kts | 126° |
| 2026-04-12 10:34 | 43.54613 | -1.67647 | 3646 ft | 197 kts | 166° |
| 2026-04-12 10:34 | 43.53254 | -1.67694 | 3027 ft | 196 kts | 188° |
| 2026-04-12 10:35 | 43.51902 | -1.67910 | 2414 ft | 195 kts | 185° |
| 2026-04-12 10:35 | 43.50565 | -1.68101 | 1816 ft | 191 kts | 185° |
| 2026-04-12 10:35 | 43.49261 | -1.68292 | 1522 ft | 188 kts | 185° |
| 2026-04-12 10:35 | 43.47960 | -1.68485 | 1511 ft | 188 kts | 186° |
| 2026-04-12 10:36 | 43.46726 | -1.68703 | 1488 ft | 167 kts | 194° |
| 2026-04-12 10:36 | 43.45722 | -1.69360 | 1490 ft | 156 kts | 211° |
| 2026-04-12 10:36 | 43.44848 | -1.70149 | 1508 ft | 147 kts | 215° |
| 2026-04-12 10:36 | 43.44025 | -1.70958 | 1507 ft | 144 kts | 216° |
| 2026-04-12 10:37 | 43.43220 | -1.71778 | 1508 ft | 144 kts | 217° |
| 2026-04-12 10:37 | 43.42419 | -1.72594 | 1512 ft | 144 kts | 215° |
| 2026-04-12 10:37 | 43.41591 | -1.73374 | 1377 ft | 144 kts | 214° |
| 2026-04-12 10:37 | 43.41031 | -1.73883 | 1249 ft | 142 kts | 214° |
| 2026-04-12 10:38 | 43.40204 | -1.74626 | 1060 ft | 141 kts | 213° |
| 2026-04-12 10:38 | 43.39385 | -1.75335 | 864 ft | 141 kts | 210° |
| 2026-04-12 10:38 | 43.38524 | -1.75976 | 675 ft | 141 kts | 212° |
| 2026-04-12 10:38 | 43.37741 | -1.76766 | 450 ft | 139 kts | 220° |
| 2026-04-12 10:39 | 43.36988 | -1.77602 | 246 ft | 139 kts | 219° |
| 2026-04-12 10:39 | 43.36235 | -1.78426 | 49 ft | 138 kts | 218° |
| 2026-04-12 10:39 | 43.35563 | -1.79158 | 17 ft | 92 kts | 218° |
| 2026-04-12 10:39 | 43.35301 | -1.79447 | 21 ft | 14 kts | 218° |
| 2026-04-12 10:40 | 43.35197 | -1.79556 | 22 ft | 22 kts | 218° |
| 2026-04-12 10:40 | 43.35095 | -1.79696 | 19 ft | 14 kts | 247° |
| 2026-04-12 10:40 | 43.35048 | -1.79725 | 18 ft | 3 kts | 97° |
| 2026-04-12 10:40 | 43.35103 | -1.79660 | 19 ft | 17 kts | 38° |
| 2026-04-12 10:41 | 43.35221 | -1.79531 | 22 ft | 23 kts | 38° |
| 2026-04-12 10:41 | 43.35352 | -1.79389 | 20 ft | 25 kts | 38° |
| 2026-04-12 10:41 | 43.35493 | -1.79234 | 18 ft | 28 kts | 38° |
| 2026-04-12 10:41 | 43.35597 | -1.79121 | 18 ft | 7 kts | 23° |
| 2026-04-12 10:42 | 43.35632 | -1.79150 | 18 ft | 5 kts | 315° |
| 2026-04-12 10:42 | 43.35638 | -1.79188 | 18 ft | 4 kts | 253° |
| 2026-04-12 10:42 | 43.35630 | -1.79241 | 18 ft | 7 kts | 303° |
| 2026-04-12 10:42 | 43.35638 | -1.79238 | 18 ft | 0 kts | 43° |